Close

Questo sito utlizza cookie. Può leggere come li usiamo nella nostra Privacy Policy.

Ronchi Tower
Ronchi Tower

From Facebook

METAR & TAF

2020/01/25 12:20 LIPQ 251220Z VRB02KT 9999 BKN050 10/07 Q1023
2020/01/25 12:21 TAF LIPQ 251100Z 2512/2612 VRB05KT 9999 SCT040 TEMPO 2521/2606 4000 RA
2020/01/25 12:20 LIPZ 251220Z VRB02KT 9999 BKN045 09/04 Q1024 NOSIG
2020/01/25 12:21 TAF LIPZ 251100Z 2512/2618 VRB05KT 6000 SCT040 TEMPO 2512/2609 3000 RA BECMG 2520/2523 2000 BR BECMG 2608/2610 6000
2020/01/25 12:20 LIPH 251220Z VRB02KT 9999 BKN055 10/03 Q1024
2020/01/25 12:21 TAF LIPH 251100Z 2512/2612 VRB05KT 7000 SCT030 TEMPO 2521/2606 3000 RA BR
2020/01/25 12:20 LIRF 251220Z 20006KT 160V230 9999 SCT015 16/12 Q1022 NOSIG
2020/01/25 12:21 TAF LIRF 251100Z 2512/2618 13010KT 9000 SCT025 BECMG 2612/2514 VRB04KT
2020/01/25 12:20 LIML 251220Z 24004KT 210V280 5000 BR BKN050 07/02 Q1024 NOSIG
2020/01/25 12:21 TAF LIML 251100Z 2512/2612 VRB05KT 6000 BKN025 TEMPO 2512/2608 DZ
2020/01/25 12:20 EDDM 251220Z VRB02KT CAVOK 06/02 Q1021 NOSIG
2020/01/25 12:39 TAF TAF EDDM 251136Z 2512/2618 VRB02KT CAVOK BECMG 2519/2522 4000 BR TEMPO 2523/2610 2500 BR BKN008 PROB30 TEMPO 2600/2608 0800 FZFG VV002 BECMG 2610/2612 8000
2020/01/25 12:20 EGSS 251220Z AUTO 18007KT 4600 HZ OVC005 06/05 Q1019
2020/01/25 12:09 TAF EGSS 251056Z 2512/2618 18006KT 4000 BR BKN006 TEMPO 2513/2607 BKN004 PROB30 TEMPO 2515/2607 1200 DZ BKN001 BECMG 2607/2610 8000 NSW FEW006 SCT012 TEMPO 2610/2613 9999 BKN012 TEMPO 2613/2618 4000 RA BKN006 BECMG 2616/2618 22016KT
2020/01/25 12:20 EDDF 251220Z VRB02KT 3500 BR FEW002 OVC003 01/01 Q1023 TEMPO 5000 OVC005
2020/01/25 12:27 TAF TAF EDDF 251100Z 2512/2618 VRB03KT 3000 BR OVC003 TEMPO 2512/2520 6000 OVC006 BECMG 2522/2601 1200 BCFG PROB30 TEMPO 2601/2610 0200 FZFG VV001 BECMG 2610/2613 2000 BR BKN005 BECMG 2613/2616 8000 SCT005 BKN010

FlightRadar24

Radar Meteo

Traffic data

Agosto 2018

Passeggeri: 63892-12,9% (rank: 23)
Nazionali 34490 -19,8%
Internazionali 29193 -3,0%

Movimenti: 1307+11,7% (rank: 24)
Tot commerciale 556 -7,2%
Aviazione generale 751 +31,5%

Cargo (tons): 20,6+62,5% (rank: 21)

Gennaio - Agosto 2018

Passeggeri: 507438-3,5% (rank: 23)
Nazionali 322655 -4,9%
Internazionali 182927 -0,7%

Movimenti: 10366-4,25 (rank: 22)
Tot commerciale 5328 -11,0%
Aviazione generale 5038 +4,2%

Cargo (tons): 299,2+61,9% (rank: 20)

Photo

Douglas DC-6B
Douglas DC-6B
Distinct views: 16
Eurocopter EC-145
Eurocopter EC-145
Distinct views: 61
Douglas DC-6B
Douglas DC-6B
Distinct views: 194
ATR ATR-72
ATR ATR-72
Total views: 992